sensor_id;sensor_type;location;lat;lon;timestamp;temperature;humidity
20045;DHT22;10183;47.808;9.476;2023-05-07T00:00:25;11.20;99.90
20045;DHT22;10183;47.808;9.476;2023-05-07T00:02:51;11.10;99.90
20045;DHT22;10183;47.808;9.476;2023-05-07T00:05:18;11.00;99.90
20045;DHT22;10183;47.808;9.476;2023-05-07T00:07:44;11.00;99.90
20045;DHT22;10183;47.808;9.476;2023-05-07T00:10:10;11.10;99.90
20045;DHT22;10183;47.808;9.476;2023-05-07T00:12:38;11.10;99.90
20045;DHT22;10183;47.808;9.476;2023-05-07T00:15:05;11.10;99.90
20045;DHT22;10183;47.808;9.476;2023-05-07T00:17:32;11.10;99.90
20045;DHT22;10183;47.808;9.476;2023-05-07T00:19:59;11.00;99.90
20045;DHT22;10183;47.808;9.476;2023-05-07T00:22:25;10.90;99.90
20045;DHT22;10183;47.808;9.476;2023-05-07T00:24:51;11.00;99.90
20045;DHT22;10183;47.808;9.476;2023-05-07T00:27:17;10.90;99.90
20045;DHT22;10183;47.808;9.476;2023-05-07T00:29:43;10.90;99.90
20045;DHT22;10183;47.808;9.476;2023-05-07T00:32:09;10.90;99.90
20045;DHT22;10183;47.808;9.476;2023-05-07T00:34:36;11.00;99.90
20045;DHT22;10183;47.808;9.476;2023-05-07T00:37:02;11.00;99.90
20045;DHT22;10183;47.808;9.476;2023-05-07T00:39:28;10.80;99.90
20045;DHT22;10183;47.808;9.476;2023-05-07T00:41:54;10.80;99.90
20045;DHT22;10183;47.808;9.476;2023-05-07T00:44:20;10.80;99.90
20045;DHT22;10183;47.808;9.476;2023-05-07T00:46:46;10.90;99.90
20045;DHT22;10183;47.808;9.476;2023-05-07T00:49:15;11.00;99.90
20045;DHT22;10183;47.808;9.476;2023-05-07T00:51:42;11.00;99.90
20045;DHT22;10183;47.808;9.476;2023-05-07T00:54:08;10.60;99.90
20045;DHT22;10183;47.808;9.476;2023-05-07T00:56:35;10.70;99.90
20045;DHT22;10183;47.808;9.476;2023-05-07T00:59:02;10.70;99.90
20045;DHT22;10183;47.808;9.476;2023-05-07T01:01:29;10.70;99.90
20045;DHT22;10183;47.808;9.476;2023-05-07T01:03:55;10.70;99.90
20045;DHT22;10183;47.808;9.476;2023-05-07T01:06:23;10.70;99.90
20045;DHT22;10183;47.808;9.476;2023-05-07T01:08:52;10.70;99.90
20045;DHT22;10183;47.808;9.476;2023-05-07T01:11:18;10.80;99.90
20045;DHT22;10183;47.808;9.476;2023-05-07T01:13:50;10.80;99.90
20045;DHT22;10183;47.808;9.476;2023-05-07T01:16:16;10.70;99.90
20045;DHT22;10183;47.808;9.476;2023-05-07T01:18:42;10.60;99.90
20045;DHT22;10183;47.808;9.476;2023-05-07T01:21:10;10.60;99.90
20045;DHT22;10183;47.808;9.476;2023-05-07T01:23:37;10.60;99.90
20045;DHT22;10183;47.808;9.476;2023-05-07T01:26:04;10.60;99.90
20045;DHT22;10183;47.808;9.476;2023-05-07T01:28:30;10.60;99.90
20045;DHT22;10183;47.808;9.476;2023-05-07T01:31:14;10.50;99.90
20045;DHT22;10183;47.808;9.476;2023-05-07T01:33:41;10.50;99.90
20045;DHT22;10183;47.808;9.476;2023-05-07T01:36:09;10.40;99.90
20045;DHT22;10183;47.808;9.476;2023-05-07T01:38:37;10.50;99.90
20045;DHT22;10183;47.808;9.476;2023-05-07T01:41:04;10.50;99.90
20045;DHT22;10183;47.808;9.476;2023-05-07T01:43:30;10.40;99.90
20045;DHT22;10183;47.808;9.476;2023-05-07T01:45:57;10.40;99.90
20045;DHT22;10183;47.808;9.476;2023-05-07T01:48:24;10.30;99.90
20045;DHT22;10183;47.808;9.476;2023-05-07T01:50:51;10.40;99.90
20045;DHT22;10183;47.808;9.476;2023-05-07T01:53:18;10.40;99.90
20045;DHT22;10183;47.808;9.476;2023-05-07T01:55:44;10.40;99.90
20045;DHT22;10183;47.808;9.476;2023-05-07T01:58:11;10.40;99.90
20045;DHT22;10183;47.808;9.476;2023-05-07T02:00:37;10.30;99.90
20045;DHT22;10183;47.808;9.476;2023-05-07T02:03:03;10.50;99.90
20045;DHT22;10183;47.808;9.476;2023-05-07T02:05:30;10.30;99.90
20045;DHT22;10183;47.808;9.476;2023-05-07T02:07:56;10.20;99.90
20045;DHT22;10183;47.808;9.476;2023-05-07T02:10:22;10.30;99.90
20045;DHT22;10183;47.808;9.476;2023-05-07T02:12:48;10.20;99.90
20045;DHT22;10183;47.808;9.476;2023-05-07T02:15:15;10.20;99.90
20045;DHT22;10183;47.808;9.476;2023-05-07T02:18:01;10.20;99.90
20045;DHT22;10183;47.808;9.476;2023-05-07T02:20:28;10.20;99.90
20045;DHT22;10183;47.808;9.476;2023-05-07T02:22:54;10.30;99.90
20045;DHT22;10183;47.808;9.476;2023-05-07T02:25:20;10.30;99.90
20045;DHT22;10183;47.808;9.476;2023-05-07T02:27:47;10.20;99.90
20045;DHT22;10183;47.808;9.476;2023-05-07T02:30:14;10.20;99.90
20045;DHT22;10183;47.808;9.476;2023-05-07T02:32:40;10.10;99.90
20045;DHT22;10183;47.808;9.476;2023-05-07T02:35:06;10.10;99.90
20045;DHT22;10183;47.808;9.476;2023-05-07T02:37:32;10.20;99.90
20045;DHT22;10183;47.808;9.476;2023-05-07T02:39:58;10.20;99.90
20045;DHT22;10183;47.808;9.476;2023-05-07T02:42:25;10.20;99.90
20045;DHT22;10183;47.808;9.476;2023-05-07T02:44:51;10.20;99.90
20045;DHT22;10183;47.808;9.476;2023-05-07T02:47:17;10.20;99.90
20045;DHT22;10183;47.808;9.476;2023-05-07T02:49:43;10.20;99.90
20045;DHT22;10183;47.808;9.476;2023-05-07T02:52:09;10.10;99.90
20045;DHT22;10183;47.808;9.476;2023-05-07T02:54:35;10.00;99.90
20045;DHT22;10183;47.808;9.476;2023-05-07T02:57:02;9.90;99.90
20045;DHT22;10183;47.808;9.476;2023-05-07T02:59:29;9.80;99.90
20045;DHT22;10183;47.808;9.476;2023-05-07T03:01:55;9.80;99.90
20045;DHT22;10183;47.808;9.476;2023-05-07T03:04:21;9.80;99.90
20045;DHT22;10183;47.808;9.476;2023-05-07T03:06:47;9.80;99.90
20045;DHT22;10183;47.808;9.476;2023-05-07T03:09:13;9.80;99.90
20045;DHT22;10183;47.808;9.476;2023-05-07T03:11:39;9.70;99.90
20045;DHT22;10183;47.808;9.476;2023-05-07T03:14:06;9.80;99.90
20045;DHT22;10183;47.808;9.476;2023-05-07T03:16:32;9.80;99.90
20045;DHT22;10183;47.808;9.476;2023-05-07T03:18:58;9.80;99.90
20045;DHT22;10183;47.808;9.476;2023-05-07T03:21:24;9.90;99.90
20045;DHT22;10183;47.808;9.476;2023-05-07T03:23:52;9.80;99.90
20045;DHT22;10183;47.808;9.476;2023-05-07T03:26:19;9.70;99.90
20045;DHT22;10183;47.808;9.476;2023-05-07T03:28:45;9.60;99.90
20045;DHT22;10183;47.808;9.476;2023-05-07T03:31:12;9.70;99.90
20045;DHT22;10183;47.808;9.476;2023-05-07T03:36:18;9.30;99.90
20045;DHT22;10183;47.808;9.476;2023-05-07T03:38:44;9.30;99.90
20045;DHT22;10183;47.808;9.476;2023-05-07T03:41:11;9.30;99.90
20045;DHT22;10183;47.808;9.476;2023-05-07T03:43:37;9.40;99.90
20045;DHT22;10183;47.808;9.476;2023-05-07T03:46:03;9.30;99.90
20045;DHT22;10183;47.808;9.476;2023-05-07T03:48:29;9.20;99.90
20045;DHT22;10183;47.808;9.476;2023-05-07T03:50:57;9.20;99.90
20045;DHT22;10183;47.808;9.476;2023-05-07T03:53:23;9.20;99.90
20045;DHT22;10183;47.808;9.476;2023-05-07T03:55:50;9.20;99.90
20045;DHT22;10183;47.808;9.476;2023-05-07T03:58:16;9.20;99.90
20045;DHT22;10183;47.808;9.476;2023-05-07T04:00:42;9.20;99.90
20045;DHT22;10183;47.808;9.476;2023-05-07T04:03:13;9.20;99.90
20045;DHT22;10183;47.808;9.476;2023-05-07T04:05:40;9.10;99.90
20045;DHT22;10183;47.808;9.476;2023-05-07T04:08:07;9.10;99.90
20045;DHT22;10183;47.808;9.476;2023-05-07T04:10:33;9.20;99.90
20045;DHT22;10183;47.808;9.476;2023-05-07T04:12:59;9.30;99.90
20045;DHT22;10183;47.808;9.476;2023-05-07T04:15:26;9.50;99.90
20045;DHT22;10183;47.808;9.476;2023-05-07T04:17:52;9.50;99.90
20045;DHT22;10183;47.808;9.476;2023-05-07T04:20:18;9.40;99.90
20045;DHT22;10183;47.808;9.476;2023-05-07T04:22:44;9.50;99.90
20045;DHT22;10183;47.808;9.476;2023-05-07T04:25:10;9.50;99.90
20045;DHT22;10183;47.808;9.476;2023-05-07T04:27:36;9.60;99.90
20045;DHT22;10183;47.808;9.476;2023-05-07T04:30:03;9.70;99.90
20045;DHT22;10183;47.808;9.476;2023-05-07T04:32:30;9.60;99.90
20045;DHT22;10183;47.808;9.476;2023-05-07T04:34:56;9.60;99.90
20045;DHT22;10183;47.808;9.476;2023-05-07T04:37:23;9.60;99.90
20045;DHT22;10183;47.808;9.476;2023-05-07T04:39:49;9.60;99.90
20045;DHT22;10183;47.808;9.476;2023-05-07T04:42:16;9.40;99.90
20045;DHT22;10183;47.808;9.476;2023-05-07T04:44:44;9.30;99.90
20045;DHT22;10183;47.808;9.476;2023-05-07T04:47:11;9.30;99.90
20045;DHT22;10183;47.808;9.476;2023-05-07T04:49:40;9.30;99.90
20045;DHT22;10183;47.808;9.476;2023-05-07T04:52:06;9.30;99.90
20045;DHT22;10183;47.808;9.476;2023-05-07T04:54:32;9.40;99.90
20045;DHT22;10183;47.808;9.476;2023-05-07T04:56:58;9.40;99.90
20045;DHT22;10183;47.808;9.476;2023-05-07T04:59:25;9.40;99.90
20045;DHT22;10183;47.808;9.476;2023-05-07T05:01:51;9.50;99.90
20045;DHT22;10183;47.808;9.476;2023-05-07T05:04:17;9.60;99.90
20045;DHT22;10183;47.808;9.476;2023-05-07T05:06:43;9.70;99.90
20045;DHT22;10183;47.808;9.476;2023-05-07T05:09:09;9.90;99.90
20045;DHT22;10183;47.808;9.476;2023-05-07T05:11:35;9.90;99.90
20045;DHT22;10183;47.808;9.476;2023-05-07T05:14:02;9.90;99.90
20045;DHT22;10183;47.808;9.476;2023-05-07T05:16:28;9.90;99.90
20045;DHT22;10183;47.808;9.476;2023-05-07T05:18:54;10.00;99.90
20045;DHT22;10183;47.808;9.476;2023-05-07T05:21:20;10.10;99.90
20045;DHT22;10183;47.808;9.476;2023-05-07T05:23:47;10.20;99.90
20045;DHT22;10183;47.808;9.476;2023-05-07T05:26:13;10.30;99.90
20045;DHT22;10183;47.808;9.476;2023-05-07T05:28:39;10.50;99.90
20045;DHT22;10183;47.808;9.476;2023-05-07T05:31:06;10.70;99.90
20045;DHT22;10183;47.808;9.476;2023-05-07T05:33:32;10.90;99.90
20045;DHT22;10183;47.808;9.476;2023-05-07T05:35:58;10.90;99.90
20045;DHT22;10183;47.808;9.476;2023-05-07T05:38:24;11.00;99.90
20045;DHT22;10183;47.808;9.476;2023-05-07T05:40:51;11.10;99.90
20045;DHT22;10183;47.808;9.476;2023-05-07T05:43:18;11.30;99.90
20045;DHT22;10183;47.808;9.476;2023-05-07T05:45:44;11.40;99.90
20045;DHT22;10183;47.808;9.476;2023-05-07T05:48:11;11.50;99.90
20045;DHT22;10183;47.808;9.476;2023-05-07T05:50:37;11.50;99.90
20045;DHT22;10183;47.808;9.476;2023-05-07T05:53:04;11.50;99.90
20045;DHT22;10183;47.808;9.476;2023-05-07T05:55:30;11.70;99.90
20045;DHT22;10183;47.808;9.476;2023-05-07T05:58:00;11.80;99.90
20045;DHT22;10183;47.808;9.476;2023-05-07T06:00:26;12.00;99.90
20045;DHT22;10183;47.808;9.476;2023-05-07T06:02:52;12.10;99.90
20045;DHT22;10183;47.808;9.476;2023-05-07T06:05:19;12.20;99.90
20045;DHT22;10183;47.808;9.476;2023-05-07T06:07:45;12.40;99.90
20045;DHT22;10183;47.808;9.476;2023-05-07T06:10:12;12.50;99.90
20045;DHT22;10183;47.808;9.476;2023-05-07T06:12:39;12.60;99.90
20045;DHT22;10183;47.808;9.476;2023-05-07T06:15:05;12.70;99.90
20045;DHT22;10183;47.808;9.476;2023-05-07T06:17:32;12.90;99.90
20045;DHT22;10183;47.808;9.476;2023-05-07T06:19:58;13.10;99.90
20045;DHT22;10183;47.808;9.476;2023-05-07T06:22:24;13.30;99.90
20045;DHT22;10183;47.808;9.476;2023-05-07T06:24:50;13.50;99.90
20045;DHT22;10183;47.808;9.476;2023-05-07T06:27:17;13.70;99.90
20045;DHT22;10183;47.808;9.476;2023-05-07T06:29:43;13.70;99.90
20045;DHT22;10183;47.808;9.476;2023-05-07T06:32:10;13.80;99.90
20045;DHT22;10183;47.808;9.476;2023-05-07T06:34:37;14.00;99.90
20045;DHT22;10183;47.808;9.476;2023-05-07T06:37:04;14.00;99.90
20045;DHT22;10183;47.808;9.476;2023-05-07T06:39:31;14.10;99.90
20045;DHT22;10183;47.808;9.476;2023-05-07T06:41:58;14.30;99.90
20045;DHT22;10183;47.808;9.476;2023-05-07T06:44:24;14.50;99.90
20045;DHT22;10183;47.808;9.476;2023-05-07T06:46:50;14.80;99.90
20045;DHT22;10183;47.808;9.476;2023-05-07T06:49:17;14.90;99.90
20045;DHT22;10183;47.808;9.476;2023-05-07T06:51:44;15.00;99.90
20045;DHT22;10183;47.808;9.476;2023-05-07T06:54:10;15.10;99.90
20045;DHT22;10183;47.808;9.476;2023-05-07T06:56:36;15.30;99.90
20045;DHT22;10183;47.808;9.476;2023-05-07T06:59:03;15.40;99.90
20045;DHT22;10183;47.808;9.476;2023-05-07T07:01:29;15.50;99.90
20045;DHT22;10183;47.808;9.476;2023-05-07T07:03:55;15.90;99.90
20045;DHT22;10183;47.808;9.476;2023-05-07T07:06:21;16.10;99.90
20045;DHT22;10183;47.808;9.476;2023-05-07T07:08:48;16.20;99.90
20045;DHT22;10183;47.808;9.476;2023-05-07T07:11:15;16.30;99.90
20045;DHT22;10183;47.808;9.476;2023-05-07T07:13:41;16.20;99.90
20045;DHT22;10183;47.808;9.476;2023-05-07T07:16:09;16.30;99.90
20045;DHT22;10183;47.808;9.476;2023-05-07T07:18:35;16.10;99.90
20045;DHT22;10183;47.808;9.476;2023-05-07T07:21:01;16.00;99.90
20045;DHT22;10183;47.808;9.476;2023-05-07T07:23:28;16.00;99.90
20045;DHT22;10183;47.808;9.476;2023-05-07T07:25:54;16.00;99.90
20045;DHT22;10183;47.808;9.476;2023-05-07T07:28:21;16.00;99.90
20045;DHT22;10183;47.808;9.476;2023-05-07T07:30:47;16.30;99.90
20045;DHT22;10183;47.808;9.476;2023-05-07T07:33:14;15.90;99.90
20045;DHT22;10183;47.808;9.476;2023-05-07T07:35:40;15.90;99.90
20045;DHT22;10183;47.808;9.476;2023-05-07T07:38:06;16.30;99.90
20045;DHT22;10183;47.808;9.476;2023-05-07T07:40:34;16.40;99.90
20045;DHT22;10183;47.808;9.476;2023-05-07T07:43:01;16.30;99.90
20045;DHT22;10183;47.808;9.476;2023-05-07T07:45:27;16.30;99.90
20045;DHT22;10183;47.808;9.476;2023-05-07T07:47:53;16.50;99.90
20045;DHT22;10183;47.808;9.476;2023-05-07T07:50:20;16.60;99.90
20045;DHT22;10183;47.808;9.476;2023-05-07T07:52:47;16.70;99.90
20045;DHT22;10183;47.808;9.476;2023-05-07T07:55:14;16.80;99.90
20045;DHT22;10183;47.808;9.476;2023-05-07T07:57:43;16.80;99.90
20045;DHT22;10183;47.808;9.476;2023-05-07T08:00:10;17.00;99.90
20045;DHT22;10183;47.808;9.476;2023-05-07T08:02:36;17.00;99.90
20045;DHT22;10183;47.808;9.476;2023-05-07T08:05:03;17.30;99.90
20045;DHT22;10183;47.808;9.476;2023-05-07T08:07:29;17.50;99.90
20045;DHT22;10183;47.808;9.476;2023-05-07T08:09:55;17.80;99.90
20045;DHT22;10183;47.808;9.476;2023-05-07T08:12:22;17.60;99.90
20045;DHT22;10183;47.808;9.476;2023-05-07T08:14:48;17.70;99.90
20045;DHT22;10183;47.808;9.476;2023-05-07T08:17:14;18.10;99.90
20045;DHT22;10183;47.808;9.476;2023-05-07T08:19:42;18.30;99.90
20045;DHT22;10183;47.808;9.476;2023-05-07T08:22:10;18.30;99.90
20045;DHT22;10183;47.808;9.476;2023-05-07T08:24:36;18.40;99.90
20045;DHT22;10183;47.808;9.476;2023-05-07T08:27:03;18.40;99.90
20045;DHT22;10183;47.808;9.476;2023-05-07T08:29:29;18.40;99.90
20045;DHT22;10183;47.808;9.476;2023-05-07T08:31:55;18.60;99.90
20045;DHT22;10183;47.808;9.476;2023-05-07T08:34:22;18.50;99.90
20045;DHT22;10183;47.808;9.476;2023-05-07T08:36:48;18.50;99.90
20045;DHT22;10183;47.808;9.476;2023-05-07T08:39:17;18.40;99.90
20045;DHT22;10183;47.808;9.476;2023-05-07T08:41:44;18.70;99.90
20045;DHT22;10183;47.808;9.476;2023-05-07T08:44:12;18.70;99.90
20045;DHT22;10183;47.808;9.476;2023-05-07T08:46:41;18.70;99.90
20045;DHT22;10183;47.808;9.476;2023-05-07T08:49:07;19.10;99.90
20045;DHT22;10183;47.808;9.476;2023-05-07T08:51:34;18.90;99.90
20045;DHT22;10183;47.808;9.476;2023-05-07T08:54:01;19.20;99.90
20045;DHT22;10183;47.808;9.476;2023-05-07T08:56:28;18.90;99.90
20045;DHT22;10183;47.808;9.476;2023-05-07T08:58:54;19.20;99.90
20045;DHT22;10183;47.808;9.476;2023-05-07T09:01:24;19.30;99.90
20045;DHT22;10183;47.808;9.476;2023-05-07T09:03:51;19.70;99.90
20045;DHT22;10183;47.808;9.476;2023-05-07T09:06:19;19.70;99.90
20045;DHT22;10183;47.808;9.476;2023-05-07T09:08:52;19.40;99.90
20045;DHT22;10183;47.808;9.476;2023-05-07T09:11:22;18.40;99.90
20045;DHT22;10183;47.808;9.476;2023-05-07T09:13:54;18.50;99.90
20045;DHT22;10183;47.808;9.476;2023-05-07T09:16:22;19.10;99.90
20045;DHT22;10183;47.808;9.476;2023-05-07T09:18:51;18.90;99.90
20045;DHT22;10183;47.808;9.476;2023-05-07T09:21:18;18.60;99.90
20045;DHT22;10183;47.808;9.476;2023-05-07T09:23:45;18.80;99.90
20045;DHT22;10183;47.808;9.476;2023-05-07T09:26:11;18.90;99.90
20045;DHT22;10183;47.808;9.476;2023-05-07T09:28:39;19.20;99.90
20045;DHT22;10183;47.808;9.476;2023-05-07T09:31:06;19.40;99.90
20045;DHT22;10183;47.808;9.476;2023-05-07T09:33:32;19.00;99.90
20045;DHT22;10183;47.808;9.476;2023-05-07T09:36:02;18.50;99.90
20045;DHT22;10183;47.808;9.476;2023-05-07T09:38:28;18.60;99.90
20045;DHT22;10183;47.808;9.476;2023-05-07T09:41:15;19.00;99.90
20045;DHT22;10183;47.808;9.476;2023-05-07T09:43:41;19.30;99.90
20045;DHT22;10183;47.808;9.476;2023-05-07T09:46:14;19.70;99.90
20045;DHT22;10183;47.808;9.476;2023-05-07T09:48:43;19.80;99.90
20045;DHT22;10183;47.808;9.476;2023-05-07T09:53:42;19.20;99.90
20045;DHT22;10183;47.808;9.476;2023-05-07T09:56:09;19.60;99.90
20045;DHT22;10183;47.808;9.476;2023-05-07T09:58:37;19.30;99.90
20045;DHT22;10183;47.808;9.476;2023-05-07T10:01:05;19.30;99.90
20045;DHT22;10183;47.808;9.476;2023-05-07T10:03:33;19.40;99.90
20045;DHT22;10183;47.808;9.476;2023-05-07T10:06:01;19.50;99.90
20045;DHT22;10183;47.808;9.476;2023-05-07T10:08:27;19.60;99.90
20045;DHT22;10183;47.808;9.476;2023-05-07T10:10:54;20.00;99.90
20045;DHT22;10183;47.808;9.476;2023-05-07T10:13:21;19.70;99.90
20045;DHT22;10183;47.808;9.476;2023-05-07T10:15:47;19.70;99.90
20045;DHT22;10183;47.808;9.476;2023-05-07T10:18:14;19.80;99.90
20045;DHT22;10183;47.808;9.476;2023-05-07T10:20:43;20.10;99.90
20045;DHT22;10183;47.808;9.476;2023-05-07T10:23:14;20.10;99.90
20045;DHT22;10183;47.808;9.476;2023-05-07T10:25:44;20.30;99.90
20045;DHT22;10183;47.808;9.476;2023-05-07T10:28:11;20.40;99.90
20045;DHT22;10183;47.808;9.476;2023-05-07T10:33:30;21.10;99.90
20045;DHT22;10183;47.808;9.476;2023-05-07T10:36:01;21.50;99.90
20045;DHT22;10183;47.808;9.476;2023-05-07T10:38:28;21.80;99.90
20045;DHT22;10183;47.808;9.476;2023-05-07T10:41:06;21.50;99.90
20045;DHT22;10183;47.808;9.476;2023-05-07T10:43:43;21.10;99.90
20045;DHT22;10183;47.808;9.476;2023-05-07T10:46:11;20.50;99.90
20045;DHT22;10183;47.808;9.476;2023-05-07T10:51:30;21.80;99.90
20045;DHT22;10183;47.808;9.476;2023-05-07T10:56:42;21.30;99.90
20045;DHT22;10183;47.808;9.476;2023-05-07T11:02:02;21.10;99.90
20045;DHT22;10183;47.808;9.476;2023-05-07T11:04:30;22.10;99.90
20045;DHT22;10183;47.808;9.476;2023-05-07T11:12:53;22.80;99.90
20045;DHT22;10183;47.808;9.476;2023-05-07T11:15:39;23.00;99.90
20045;DHT22;10183;47.808;9.476;2023-05-07T11:18:05;23.50;99.90
20045;DHT22;10183;47.808;9.476;2023-05-07T11:20:51;23.30;99.90
20045;DHT22;10183;47.808;9.476;2023-05-07T11:26:08;23.30;99.90
20045;DHT22;10183;47.808;9.476;2023-05-07T11:28:40;22.90;99.90
20045;DHT22;10183;47.808;9.476;2023-05-07T11:31:07;22.60;99.90
20045;DHT22;10183;47.808;9.476;2023-05-07T11:33:34;22.70;99.90
20045;DHT22;10183;47.808;9.476;2023-05-07T11:36:03;22.70;99.90
20045;DHT22;10183;47.808;9.476;2023-05-07T11:38:30;22.70;99.90
20045;DHT22;10183;47.808;9.476;2023-05-07T11:40:59;22.90;99.90
20045;DHT22;10183;47.808;9.476;2023-05-07T11:43:28;22.50;99.90
20045;DHT22;10183;47.808;9.476;2023-05-07T11:45:54;21.80;99.90
20045;DHT22;10183;47.808;9.476;2023-05-07T11:48:21;22.20;99.90
20045;DHT22;10183;47.808;9.476;2023-05-07T11:50:52;22.20;99.90
20045;DHT22;10183;47.808;9.476;2023-05-07T11:53:19;22.50;99.90
20045;DHT22;10183;47.808;9.476;2023-05-07T11:55:46;22.40;99.90
20045;DHT22;10183;47.808;9.476;2023-05-07T11:58:18;22.50;99.90
20045;DHT22;10183;47.808;9.476;2023-05-07T12:01:04;23.10;99.90
20045;DHT22;10183;47.808;9.476;2023-05-07T12:03:32;23.10;99.90
20045;DHT22;10183;47.808;9.476;2023-05-07T12:06:00;23.00;99.90
20045;DHT22;10183;47.808;9.476;2023-05-07T12:08:26;24.10;99.90
20045;DHT22;10183;47.808;9.476;2023-05-07T12:10:52;24.60;99.90
20045;DHT22;10183;47.808;9.476;2023-05-07T12:13:23;25.00;99.90
20045;DHT22;10183;47.808;9.476;2023-05-07T12:15:53;25.80;99.90
20045;DHT22;10183;47.808;9.476;2023-05-07T12:18:21;26.10;99.90
20045;DHT22;10183;47.808;9.476;2023-05-07T12:20:48;25.20;99.90
20045;DHT22;10183;47.808;9.476;2023-05-07T12:23:14;25.30;99.90
20045;DHT22;10183;47.808;9.476;2023-05-07T12:25:42;26.50;99.90
20045;DHT22;10183;47.808;9.476;2023-05-07T12:28:19;27.00;99.90
20045;DHT22;10183;47.808;9.476;2023-05-07T12:30:47;26.70;99.90
20045;DHT22;10183;47.808;9.476;2023-05-07T12:33:17;24.60;99.90
20045;DHT22;10183;47.808;9.476;2023-05-07T12:35:44;23.20;99.90
20045;DHT22;10183;47.808;9.476;2023-05-07T12:38:13;22.60;99.90
20045;DHT22;10183;47.808;9.476;2023-05-07T12:40:43;23.00;99.90
20045;DHT22;10183;47.808;9.476;2023-05-07T12:43:26;22.90;99.90
20045;DHT22;10183;47.808;9.476;2023-05-07T12:45:56;22.70;99.90
20045;DHT22;10183;47.808;9.476;2023-05-07T12:48:23;22.50;99.90
20045;DHT22;10183;47.808;9.476;2023-05-07T12:50:53;22.30;99.90
20045;DHT22;10183;47.808;9.476;2023-05-07T12:53:21;23.00;99.90
20045;DHT22;10183;47.808;9.476;2023-05-07T12:55:50;23.40;99.90
20045;DHT22;10183;47.808;9.476;2023-05-07T12:58:30;23.30;99.90
20045;DHT22;10183;47.808;9.476;2023-05-07T13:00:59;24.20;99.90
20045;DHT22;10183;47.808;9.476;2023-05-07T13:03:31;24.90;99.90
20045;DHT22;10183;47.808;9.476;2023-05-07T13:06:04;25.60;99.90
20045;DHT22;10183;47.808;9.476;2023-05-07T13:08:34;24.50;99.90
20045;DHT22;10183;47.808;9.476;2023-05-07T13:11:01;23.00;99.90
20045;DHT22;10183;47.808;9.476;2023-05-07T13:13:33;23.30;99.90
20045;DHT22;10183;47.808;9.476;2023-05-07T13:16:01;24.10;99.90
20045;DHT22;10183;47.808;9.476;2023-05-07T13:18:29;24.70;99.90
20045;DHT22;10183;47.808;9.476;2023-05-07T13:20:56;25.50;99.90
20045;DHT22;10183;47.808;9.476;2023-05-07T13:23:23;26.20;99.90
20045;DHT22;10183;47.808;9.476;2023-05-07T13:25:49;26.00;96.00
20045;DHT22;10183;47.808;9.476;2023-05-07T13:28:16;24.90;99.90
20045;DHT22;10183;47.808;9.476;2023-05-07T13:30:43;25.20;99.90
20045;DHT22;10183;47.808;9.476;2023-05-07T13:33:09;23.90;99.90
20045;DHT22;10183;47.808;9.476;2023-05-07T13:35:36;23.50;99.90
20045;DHT22;10183;47.808;9.476;2023-05-07T13:38:04;23.40;99.90
20045;DHT22;10183;47.808;9.476;2023-05-07T13:40:31;23.10;99.90
20045;DHT22;10183;47.808;9.476;2023-05-07T13:42:58;22.40;99.90
20045;DHT22;10183;47.808;9.476;2023-05-07T13:45:25;21.50;99.90
20045;DHT22;10183;47.808;9.476;2023-05-07T13:47:52;21.30;99.90
20045;DHT22;10183;47.808;9.476;2023-05-07T13:50:19;21.00;99.90
20045;DHT22;10183;47.808;9.476;2023-05-07T13:52:45;21.40;99.90
20045;DHT22;10183;47.808;9.476;2023-05-07T13:55:20;21.90;99.90
20045;DHT22;10183;47.808;9.476;2023-05-07T13:57:47;21.00;99.90
20045;DHT22;10183;47.808;9.476;2023-05-07T14:00:14;21.40;99.90
20045;DHT22;10183;47.808;9.476;2023-05-07T14:02:42;21.90;99.90
20045;DHT22;10183;47.808;9.476;2023-05-07T14:05:08;23.80;99.90
20045;DHT22;10183;47.808;9.476;2023-05-07T14:07:35;23.90;99.90
20045;DHT22;10183;47.808;9.476;2023-05-07T14:10:02;26.00;99.90
20045;DHT22;10183;47.808;9.476;2023-05-07T14:12:28;26.00;99.90
20045;DHT22;10183;47.808;9.476;2023-05-07T14:14:54;25.00;99.90
20045;DHT22;10183;47.808;9.476;2023-05-07T14:17:21;24.60;99.90
20045;DHT22;10183;47.808;9.476;2023-05-07T14:19:49;24.70;92.50
20045;DHT22;10183;47.808;9.476;2023-05-07T14:22:15;25.70;99.90
20045;DHT22;10183;47.808;9.476;2023-05-07T14:24:41;28.00;94.90
20045;DHT22;10183;47.808;9.476;2023-05-07T14:27:07;27.50;71.60
20045;DHT22;10183;47.808;9.476;2023-05-07T14:29:34;28.10;60.90
20045;DHT22;10183;47.808;9.476;2023-05-07T14:32:02;27.10;71.40
20045;DHT22;10183;47.808;9.476;2023-05-07T14:34:29;27.40;99.90
20045;DHT22;10183;47.808;9.476;2023-05-07T14:36:55;28.80;95.40
20045;DHT22;10183;47.808;9.476;2023-05-07T14:39:22;29.10;66.20
20045;DHT22;10183;47.808;9.476;2023-05-07T14:41:48;27.10;72.70
20045;DHT22;10183;47.808;9.476;2023-05-07T14:44:14;25.90;94.10
20045;DHT22;10183;47.808;9.476;2023-05-07T14:46:40;24.10;99.90
20045;DHT22;10183;47.808;9.476;2023-05-07T14:49:06;23.00;99.90
20045;DHT22;10183;47.808;9.476;2023-05-07T14:51:37;22.30;99.90
20045;DHT22;10183;47.808;9.476;2023-05-07T14:54:03;21.60;99.90
20045;DHT22;10183;47.808;9.476;2023-05-07T14:56:29;21.50;99.90
20045;DHT22;10183;47.808;9.476;2023-05-07T14:58:56;21.20;99.90
20045;DHT22;10183;47.808;9.476;2023-05-07T15:01:25;21.30;99.90
20045;DHT22;10183;47.808;9.476;2023-05-07T15:03:52;22.20;99.90
20045;DHT22;10183;47.808;9.476;2023-05-07T15:06:18;22.90;99.90
20045;DHT22;10183;47.808;9.476;2023-05-07T15:08:44;23.50;99.90
20045;DHT22;10183;47.808;9.476;2023-05-07T15:11:11;23.70;99.90
20045;DHT22;10183;47.808;9.476;2023-05-07T15:13:37;23.40;99.90
20045;DHT22;10183;47.808;9.476;2023-05-07T15:16:03;23.00;99.90
20045;DHT22;10183;47.808;9.476;2023-05-07T15:18:29;22.30;99.90
20045;DHT22;10183;47.808;9.476;2023-05-07T15:20:56;22.50;99.90
20045;DHT22;10183;47.808;9.476;2023-05-07T15:23:23;23.10;99.90
20045;DHT22;10183;47.808;9.476;2023-05-07T15:25:50;23.50;99.90
20045;DHT22;10183;47.808;9.476;2023-05-07T15:28:17;23.20;99.90
20045;DHT22;10183;47.808;9.476;2023-05-07T15:30:43;22.50;99.90
20045;DHT22;10183;47.808;9.476;2023-05-07T15:33:10;21.90;99.90
20045;DHT22;10183;47.808;9.476;2023-05-07T15:35:37;21.10;99.90
20045;DHT22;10183;47.808;9.476;2023-05-07T15:38:03;20.70;99.90
20045;DHT22;10183;47.808;9.476;2023-05-07T15:40:31;20.30;99.90
20045;DHT22;10183;47.808;9.476;2023-05-07T15:42:58;20.40;99.90
20045;DHT22;10183;47.808;9.476;2023-05-07T15:45:24;21.10;99.90
20045;DHT22;10183;47.808;9.476;2023-05-07T15:47:50;21.20;99.90
20045;DHT22;10183;47.808;9.476;2023-05-07T15:50:17;21.20;99.90
20045;DHT22;10183;47.808;9.476;2023-05-07T15:52:43;21.80;99.90
20045;DHT22;10183;47.808;9.476;2023-05-07T15:55:10;21.70;99.90
20045;DHT22;10183;47.808;9.476;2023-05-07T15:57:37;21.70;99.90